sensor_id;sensor_type;location;lat;lon;timestamp;temperature;humidity
64396;DHT22;50717;53.360;6.290;2022-07-12T00:01:50;15.60;99.90
64396;DHT22;50717;53.360;6.290;2022-07-12T00:04:16;15.80;99.90
64396;DHT22;50717;53.360;6.290;2022-07-12T00:06:42;15.70;99.90
64396;DHT22;50717;53.360;6.290;2022-07-12T00:09:07;15.60;99.90
64396;DHT22;50717;53.360;6.290;2022-07-12T00:11:35;15.80;99.90
64396;DHT22;50717;53.360;6.290;2022-07-12T00:14:01;15.40;99.90
64396;DHT22;50717;53.360;6.290;2022-07-12T00:16:26;15.40;99.90
64396;DHT22;50717;53.360;6.290;2022-07-12T00:18:52;15.70;99.90
64396;DHT22;50717;53.360;6.290;2022-07-12T00:21:19;15.50;99.90
64396;DHT22;50717;53.360;6.290;2022-07-12T00:23:45;15.40;99.90
64396;DHT22;50717;53.360;6.290;2022-07-12T00:26:11;15.50;99.90
64396;DHT22;50717;53.360;6.290;2022-07-12T00:28:36;15.50;99.90
64396;DHT22;50717;53.360;6.290;2022-07-12T00:31:02;15.50;99.90
64396;DHT22;50717;53.360;6.290;2022-07-12T00:33:28;15.40;99.90
64396;DHT22;50717;53.360;6.290;2022-07-12T00:35:54;15.70;99.90
64396;DHT22;50717;53.360;6.290;2022-07-12T00:38:20;15.60;99.90
64396;DHT22;50717;53.360;6.290;2022-07-12T00:40:45;15.40;99.90
64396;DHT22;50717;53.360;6.290;2022-07-12T00:43:11;15.70;99.90
64396;DHT22;50717;53.360;6.290;2022-07-12T00:45:37;15.60;99.90
64396;DHT22;50717;53.360;6.290;2022-07-12T00:48:03;15.70;99.90
64396;DHT22;50717;53.360;6.290;2022-07-12T00:50:29;15.60;99.90
64396;DHT22;50717;53.360;6.290;2022-07-12T00:52:55;15.50;99.90
64396;DHT22;50717;53.360;6.290;2022-07-12T00:55:22;15.30;99.90
64396;DHT22;50717;53.360;6.290;2022-07-12T00:57:48;15.60;99.90
64396;DHT22;50717;53.360;6.290;2022-07-12T01:00:17;15.70;99.90
64396;DHT22;50717;53.360;6.290;2022-07-12T01:02:43;15.50;99.90
64396;DHT22;50717;53.360;6.290;2022-07-12T01:05:11;15.70;99.90
64396;DHT22;50717;53.360;6.290;2022-07-12T01:07:37;15.40;99.90
64396;DHT22;50717;53.360;6.290;2022-07-12T01:10:04;15.60;99.90
64396;DHT22;50717;53.360;6.290;2022-07-12T01:12:30;15.70;99.90
64396;DHT22;50717;53.360;6.290;2022-07-12T01:14:56;16.70;99.90
64396;DHT22;50717;53.360;6.290;2022-07-12T01:22:53;15.50;99.90
64396;DHT22;50717;53.360;6.290;2022-07-12T01:25:19;15.80;99.90
64396;DHT22;50717;53.360;6.290;2022-07-12T01:27:45;15.30;99.90
64396;DHT22;50717;53.360;6.290;2022-07-12T01:30:11;15.40;99.90
64396;DHT22;50717;53.360;6.290;2022-07-12T01:32:38;15.90;99.90
64396;DHT22;50717;53.360;6.290;2022-07-12T01:35:05;15.50;99.90
64396;DHT22;50717;53.360;6.290;2022-07-12T01:37:38;15.40;99.90
64396;DHT22;50717;53.360;6.290;2022-07-12T01:40:06;15.50;99.90
64396;DHT22;50717;53.360;6.290;2022-07-12T01:42:32;15.30;99.90
64396;DHT22;50717;53.360;6.290;2022-07-12T01:44:57;15.60;99.90
64396;DHT22;50717;53.360;6.290;2022-07-12T01:47:25;15.60;99.90
64396;DHT22;50717;53.360;6.290;2022-07-12T01:49:51;15.60;99.90
64396;DHT22;50717;53.360;6.290;2022-07-12T01:52:17;15.80;99.90
64396;DHT22;50717;53.360;6.290;2022-07-12T01:54:43;15.40;99.90
64396;DHT22;50717;53.360;6.290;2022-07-12T01:57:09;15.60;99.90
64396;DHT22;50717;53.360;6.290;2022-07-12T01:59:34;15.70;99.90
64396;DHT22;50717;53.360;6.290;2022-07-12T02:02:02;15.70;99.90
64396;DHT22;50717;53.360;6.290;2022-07-12T02:04:28;15.40;99.90
64396;DHT22;50717;53.360;6.290;2022-07-12T02:06:54;15.80;99.90
64396;DHT22;50717;53.360;6.290;2022-07-12T02:09:19;15.20;99.90
64396;DHT22;50717;53.360;6.290;2022-07-12T02:11:45;15.60;99.90
64396;DHT22;50717;53.360;6.290;2022-07-12T02:14:13;15.50;99.90
64396;DHT22;50717;53.360;6.290;2022-07-12T02:16:39;15.30;99.90
64396;DHT22;50717;53.360;6.290;2022-07-12T02:19:05;15.40;99.90
64396;DHT22;50717;53.360;6.290;2022-07-12T02:21:31;15.50;99.90
64396;DHT22;50717;53.360;6.290;2022-07-12T02:23:57;15.30;99.90
64396;DHT22;50717;53.360;6.290;2022-07-12T02:26:22;15.50;99.90
64396;DHT22;50717;53.360;6.290;2022-07-12T02:28:48;15.40;99.90
64396;DHT22;50717;53.360;6.290;2022-07-12T02:31:14;15.40;99.90
64396;DHT22;50717;53.360;6.290;2022-07-12T02:33:41;16.60;99.90
64396;DHT22;50717;53.360;6.290;2022-07-12T02:36:06;15.10;99.90
64396;DHT22;50717;53.360;6.290;2022-07-12T02:38:32;15.40;99.90
64396;DHT22;50717;53.360;6.290;2022-07-12T02:40:58;15.30;99.90
64396;DHT22;50717;53.360;6.290;2022-07-12T02:43:28;15.10;99.90
64396;DHT22;50717;53.360;6.290;2022-07-12T02:46:02;15.40;99.90
64396;DHT22;50717;53.360;6.290;2022-07-12T02:48:28;15.10;99.90
64396;DHT22;50717;53.360;6.290;2022-07-12T02:50:54;15.10;99.90
64396;DHT22;50717;53.360;6.290;2022-07-12T02:53:19;15.20;99.90
64396;DHT22;50717;53.360;6.290;2022-07-12T02:55:45;15.80;99.90
64396;DHT22;50717;53.360;6.290;2022-07-12T02:58:11;15.10;99.90
64396;DHT22;50717;53.360;6.290;2022-07-12T03:00:39;15.20;99.90
64396;DHT22;50717;53.360;6.290;2022-07-12T03:03:05;15.00;99.90
64396;DHT22;50717;53.360;6.290;2022-07-12T03:05:33;15.00;99.90
64396;DHT22;50717;53.360;6.290;2022-07-12T03:08:00;15.70;99.90
64396;DHT22;50717;53.360;6.290;2022-07-12T03:10:25;15.00;99.90
64396;DHT22;50717;53.360;6.290;2022-07-12T03:12:51;15.10;99.90
64396;DHT22;50717;53.360;6.290;2022-07-12T03:15:16;15.20;99.90
64396;DHT22;50717;53.360;6.290;2022-07-12T03:17:42;15.30;99.90
64396;DHT22;50717;53.360;6.290;2022-07-12T03:20:08;14.80;99.90
64396;DHT22;50717;53.360;6.290;2022-07-12T03:22:36;15.30;99.90
64396;DHT22;50717;53.360;6.290;2022-07-12T03:25:02;14.90;99.90
64396;DHT22;50717;53.360;6.290;2022-07-12T03:27:27;15.00;99.90
64396;DHT22;50717;53.360;6.290;2022-07-12T03:29:53;14.90;99.90
64396;DHT22;50717;53.360;6.290;2022-07-12T03:32:19;15.40;99.90
64396;DHT22;50717;53.360;6.290;2022-07-12T03:34:44;15.20;99.90
64396;DHT22;50717;53.360;6.290;2022-07-12T03:37:10;15.00;99.90
64396;DHT22;50717;53.360;6.290;2022-07-12T03:39:35;15.30;99.90
64396;DHT22;50717;53.360;6.290;2022-07-12T03:42:01;15.00;99.90
64396;DHT22;50717;53.360;6.290;2022-07-12T03:44:27;15.20;99.90
64396;DHT22;50717;53.360;6.290;2022-07-12T03:46:55;15.50;99.90
64396;DHT22;50717;53.360;6.290;2022-07-12T03:49:21;15.00;99.90
64396;DHT22;50717;53.360;6.290;2022-07-12T03:51:47;14.90;99.90
64396;DHT22;50717;53.360;6.290;2022-07-12T03:54:12;14.80;99.90
64396;DHT22;50717;53.360;6.290;2022-07-12T03:56:38;14.80;99.90
64396;DHT22;50717;53.360;6.290;2022-07-12T03:59:22;15.00;99.90
64396;DHT22;50717;53.360;6.290;2022-07-12T04:01:48;15.10;99.90
64396;DHT22;50717;53.360;6.290;2022-07-12T04:04:14;15.10;99.90
64396;DHT22;50717;53.360;6.290;2022-07-12T04:06:39;15.30;99.90
64396;DHT22;50717;53.360;6.290;2022-07-12T04:09:06;14.90;99.90
64396;DHT22;50717;53.360;6.290;2022-07-12T04:11:32;14.80;99.90
64396;DHT22;50717;53.360;6.290;2022-07-12T04:13:59;15.30;99.90
64396;DHT22;50717;53.360;6.290;2022-07-12T04:16:25;15.20;99.90
64396;DHT22;50717;53.360;6.290;2022-07-12T04:18:52;14.90;99.90
64396;DHT22;50717;53.360;6.290;2022-07-12T04:21:18;15.00;99.90
64396;DHT22;50717;53.360;6.290;2022-07-12T04:23:44;15.00;99.90
64396;DHT22;50717;53.360;6.290;2022-07-12T04:26:10;14.90;99.90
64396;DHT22;50717;53.360;6.290;2022-07-12T04:28:35;15.00;99.90
64396;DHT22;50717;53.360;6.290;2022-07-12T04:31:01;15.20;99.90
64396;DHT22;50717;53.360;6.290;2022-07-12T04:33:27;15.10;99.90
64396;DHT22;50717;53.360;6.290;2022-07-12T04:35:53;15.00;99.90
64396;DHT22;50717;53.360;6.290;2022-07-12T04:38:19;15.30;99.90
64396;DHT22;50717;53.360;6.290;2022-07-12T04:40:44;15.20;99.90
64396;DHT22;50717;53.360;6.290;2022-07-12T04:43:10;15.30;99.90
64396;DHT22;50717;53.360;6.290;2022-07-12T04:45:36;15.60;99.90
64396;DHT22;50717;53.360;6.290;2022-07-12T04:48:01;15.50;99.90
64396;DHT22;50717;53.360;6.290;2022-07-12T04:50:27;15.40;99.90
64396;DHT22;50717;53.360;6.290;2022-07-12T04:52:53;15.20;99.90
64396;DHT22;50717;53.360;6.290;2022-07-12T04:55:18;15.20;99.90
64396;DHT22;50717;53.360;6.290;2022-07-12T04:57:44;15.20;99.90
64396;DHT22;50717;53.360;6.290;2022-07-12T05:00:10;15.10;99.90
64396;DHT22;50717;53.360;6.290;2022-07-12T05:02:36;15.50;99.90
64396;DHT22;50717;53.360;6.290;2022-07-12T05:05:03;15.20;99.90
64396;DHT22;50717;53.360;6.290;2022-07-12T05:07:28;15.30;99.90
64396;DHT22;50717;53.360;6.290;2022-07-12T05:09:54;15.40;99.90
64396;DHT22;50717;53.360;6.290;2022-07-12T05:12:20;15.00;99.90
64396;DHT22;50717;53.360;6.290;2022-07-12T05:14:45;16.50;99.90
64396;DHT22;50717;53.360;6.290;2022-07-12T05:17:11;15.40;99.90
64396;DHT22;50717;53.360;6.290;2022-07-12T05:19:38;15.30;99.90
64396;DHT22;50717;53.360;6.290;2022-07-12T05:22:04;15.60;99.90
64396;DHT22;50717;53.360;6.290;2022-07-12T05:24:30;15.70;99.90
64396;DHT22;50717;53.360;6.290;2022-07-12T05:26:55;15.70;99.90
64396;DHT22;50717;53.360;6.290;2022-07-12T05:29:21;16.80;99.90
64396;DHT22;50717;53.360;6.290;2022-07-12T05:31:46;15.50;99.90
64396;DHT22;50717;53.360;6.290;2022-07-12T05:34:12;16.00;99.90
64396;DHT22;50717;53.360;6.290;2022-07-12T05:36:38;15.70;99.90
64396;DHT22;50717;53.360;6.290;2022-07-12T05:39:04;15.80;99.90
64396;DHT22;50717;53.360;6.290;2022-07-12T05:41:30;15.80;99.90
64396;DHT22;50717;53.360;6.290;2022-07-12T05:43:55;15.70;99.90
64396;DHT22;50717;53.360;6.290;2022-07-12T05:46:21;16.00;99.90
64396;DHT22;50717;53.360;6.290;2022-07-12T05:48:46;16.10;99.90
64396;DHT22;50717;53.360;6.290;2022-07-12T05:51:12;15.90;99.90
64396;DHT22;50717;53.360;6.290;2022-07-12T05:53:56;15.90;99.90
64396;DHT22;50717;53.360;6.290;2022-07-12T05:56:22;15.90;99.90
64396;DHT22;50717;53.360;6.290;2022-07-12T05:58:47;16.30;99.90
64396;DHT22;50717;53.360;6.290;2022-07-12T06:01:13;16.10;99.90
64396;DHT22;50717;53.360;6.290;2022-07-12T06:03:38;15.90;99.90
64396;DHT22;50717;53.360;6.290;2022-07-12T06:06:04;16.40;99.90
64396;DHT22;50717;53.360;6.290;2022-07-12T06:08:30;16.10;99.90
64396;DHT22;50717;53.360;6.290;2022-07-12T06:10:55;16.10;99.90
64396;DHT22;50717;53.360;6.290;2022-07-12T06:13:21;16.40;99.90
64396;DHT22;50717;53.360;6.290;2022-07-12T06:15:47;16.40;99.90
64396;DHT22;50717;53.360;6.290;2022-07-12T06:18:12;16.20;99.90
64396;DHT22;50717;53.360;6.290;2022-07-12T06:20:38;16.60;99.90
64396;DHT22;50717;53.360;6.290;2022-07-12T06:23:05;16.50;99.90
64396;DHT22;50717;53.360;6.290;2022-07-12T06:25:31;16.50;99.90
64396;DHT22;50717;53.360;6.290;2022-07-12T06:28:03;16.60;99.90
64396;DHT22;50717;53.360;6.290;2022-07-12T06:30:29;16.80;99.90
64396;DHT22;50717;53.360;6.290;2022-07-12T06:32:55;17.10;99.90
64396;DHT22;50717;53.360;6.290;2022-07-12T06:35:21;17.10;99.90
64396;DHT22;50717;53.360;6.290;2022-07-12T06:37:47;16.80;99.90
64396;DHT22;50717;53.360;6.290;2022-07-12T06:40:12;17.20;99.90
64396;DHT22;50717;53.360;6.290;2022-07-12T06:42:40;17.30;99.90
64396;DHT22;50717;53.360;6.290;2022-07-12T06:45:06;17.30;99.90
64396;DHT22;50717;53.360;6.290;2022-07-12T06:47:32;17.50;99.90
64396;DHT22;50717;53.360;6.290;2022-07-12T06:49:57;17.80;99.90
64396;DHT22;50717;53.360;6.290;2022-07-12T06:52:23;18.00;99.90
64396;DHT22;50717;53.360;6.290;2022-07-12T06:54:49;18.00;99.90
64396;DHT22;50717;53.360;6.290;2022-07-12T06:57:14;18.80;99.90
64396;DHT22;50717;53.360;6.290;2022-07-12T06:59:40;18.60;99.90
64396;DHT22;50717;53.360;6.290;2022-07-12T07:02:06;18.90;99.90
64396;DHT22;50717;53.360;6.290;2022-07-12T07:04:32;19.10;99.90
64396;DHT22;50717;53.360;6.290;2022-07-12T07:06:57;18.70;99.90
64396;DHT22;50717;53.360;6.290;2022-07-12T07:09:23;19.20;99.90
64396;DHT22;50717;53.360;6.290;2022-07-12T07:11:49;19.20;99.90
64396;DHT22;50717;53.360;6.290;2022-07-12T07:14:14;19.40;99.90
64396;DHT22;50717;53.360;6.290;2022-07-12T07:16:40;19.30;99.90
64396;DHT22;50717;53.360;6.290;2022-07-12T07:19:05;19.70;99.90
64396;DHT22;50717;53.360;6.290;2022-07-12T07:21:31;19.80;99.90
64396;DHT22;50717;53.360;6.290;2022-07-12T07:23:57;19.70;99.90
64396;DHT22;50717;53.360;6.290;2022-07-12T07:26:23;19.90;99.90
64396;DHT22;50717;53.360;6.290;2022-07-12T07:28:49;19.70;99.90
64396;DHT22;50717;53.360;6.290;2022-07-12T07:31:36;19.80;99.90
64396;DHT22;50717;53.360;6.290;2022-07-12T07:34:03;19.90;99.90
64396;DHT22;50717;53.360;6.290;2022-07-12T07:36:29;20.40;99.90
64396;DHT22;50717;53.360;6.290;2022-07-12T07:38:55;20.60;99.90
64396;DHT22;50717;53.360;6.290;2022-07-12T07:41:20;20.20;99.90
64396;DHT22;50717;53.360;6.290;2022-07-12T07:43:46;20.30;99.90
64396;DHT22;50717;53.360;6.290;2022-07-12T07:46:12;20.20;99.90
64396;DHT22;50717;53.360;6.290;2022-07-12T07:48:38;20.50;99.90
64396;DHT22;50717;53.360;6.290;2022-07-12T07:51:03;20.70;99.90
64396;DHT22;50717;53.360;6.290;2022-07-12T07:53:29;20.60;99.90
64396;DHT22;50717;53.360;6.290;2022-07-12T07:55:55;20.70;99.90
64396;DHT22;50717;53.360;6.290;2022-07-12T07:58:20;20.90;99.90
64396;DHT22;50717;53.360;6.290;2022-07-12T08:00:48;20.60;99.90
64396;DHT22;50717;53.360;6.290;2022-07-12T08:03:14;20.90;99.90
64396;DHT22;50717;53.360;6.290;2022-07-12T08:05:40;20.80;99.90
64396;DHT22;50717;53.360;6.290;2022-07-12T08:08:06;21.00;99.90
64396;DHT22;50717;53.360;6.290;2022-07-12T08:10:31;20.70;99.90
64396;DHT22;50717;53.360;6.290;2022-07-12T08:12:57;20.90;99.90
64396;DHT22;50717;53.360;6.290;2022-07-12T08:15:23;20.90;99.90
64396;DHT22;50717;53.360;6.290;2022-07-12T08:17:48;21.00;99.90
64396;DHT22;50717;53.360;6.290;2022-07-12T08:20:14;20.90;99.90
64396;DHT22;50717;53.360;6.290;2022-07-12T08:22:46;21.20;99.90
64396;DHT22;50717;53.360;6.290;2022-07-12T08:25:12;20.90;99.90
64396;DHT22;50717;53.360;6.290;2022-07-12T08:27:38;21.20;99.90
64396;DHT22;50717;53.360;6.290;2022-07-12T08:30:05;21.40;99.90
64396;DHT22;50717;53.360;6.290;2022-07-12T08:32:31;21.70;99.90
64396;DHT22;50717;53.360;6.290;2022-07-12T08:34:57;21.30;99.90
64396;DHT22;50717;53.360;6.290;2022-07-12T08:37:23;21.30;99.90
64396;DHT22;50717;53.360;6.290;2022-07-12T08:39:49;21.40;99.90
64396;DHT22;50717;53.360;6.290;2022-07-12T08:42:15;21.50;99.90
64396;DHT22;50717;53.360;6.290;2022-07-12T08:44:53;21.40;99.90
64396;DHT22;50717;53.360;6.290;2022-07-12T08:47:19;21.60;99.90
64396;DHT22;50717;53.360;6.290;2022-07-12T08:50:15;21.60;99.90
64396;DHT22;50717;53.360;6.290;2022-07-12T08:52:50;21.90;99.90
64396;DHT22;50717;53.360;6.290;2022-07-12T08:55:20;21.80;99.90
64396;DHT22;50717;53.360;6.290;2022-07-12T08:57:53;22.10;99.90
64396;DHT22;50717;53.360;6.290;2022-07-12T09:00:19;22.30;99.90
64396;DHT22;50717;53.360;6.290;2022-07-12T09:03:04;22.20;99.90
64396;DHT22;50717;53.360;6.290;2022-07-12T09:05:33;22.70;99.90
64396;DHT22;50717;53.360;6.290;2022-07-12T09:08:09;23.00;99.90
64396;DHT22;50717;53.360;6.290;2022-07-12T09:10:55;23.00;99.90
64396;DHT22;50717;53.360;6.290;2022-07-12T09:16:15;22.80;99.90
64396;DHT22;50717;53.360;6.290;2022-07-12T09:18:42;23.20;99.90
64396;DHT22;50717;53.360;6.290;2022-07-12T09:21:08;22.60;99.90
64396;DHT22;50717;53.360;6.290;2022-07-12T09:23:34;22.60;99.90
64396;DHT22;50717;53.360;6.290;2022-07-12T09:25:59;22.90;99.90
64396;DHT22;50717;53.360;6.290;2022-07-12T09:28:26;22.70;99.90
64396;DHT22;50717;53.360;6.290;2022-07-12T09:30:53;22.80;99.90
64396;DHT22;50717;53.360;6.290;2022-07-12T09:33:20;23.00;99.90
64396;DHT22;50717;53.360;6.290;2022-07-12T09:36:05;23.10;99.90
64396;DHT22;50717;53.360;6.290;2022-07-12T09:41:17;23.50;99.90
64396;DHT22;50717;53.360;6.290;2022-07-12T09:43:44;23.10;99.90
64396;DHT22;50717;53.360;6.290;2022-07-12T09:46:10;23.60;99.90
64396;DHT22;50717;53.360;6.290;2022-07-12T09:48:36;23.80;99.90
64396;DHT22;50717;53.360;6.290;2022-07-12T09:51:03;23.90;99.90
64396;DHT22;50717;53.360;6.290;2022-07-12T09:53:32;23.70;99.90
64396;DHT22;50717;53.360;6.290;2022-07-12T09:56:04;24.20;99.90
64396;DHT22;50717;53.360;6.290;2022-07-12T09:58:34;24.40;99.90
64396;DHT22;50717;53.360;6.290;2022-07-12T10:01:01;24.20;99.90
64396;DHT22;50717;53.360;6.290;2022-07-12T10:03:29;24.40;99.90
64396;DHT22;50717;53.360;6.290;2022-07-12T10:05:59;25.10;99.90
64396;DHT22;50717;53.360;6.290;2022-07-12T10:08:27;25.10;99.90
64396;DHT22;50717;53.360;6.290;2022-07-12T10:10:54;25.00;99.90
64396;DHT22;50717;53.360;6.290;2022-07-12T10:13:20;24.90;99.90
64396;DHT22;50717;53.360;6.290;2022-07-12T10:15:50;25.30;99.90
64396;DHT22;50717;53.360;6.290;2022-07-12T10:18:18;25.20;99.90
64396;DHT22;50717;53.360;6.290;2022-07-12T10:20:45;25.40;99.90
64396;DHT22;50717;53.360;6.290;2022-07-12T10:25:46;25.80;99.90
64396;DHT22;50717;53.360;6.290;2022-07-12T10:28:13;25.60;99.90
64396;DHT22;50717;53.360;6.290;2022-07-12T10:30:50;25.40;99.90
64396;DHT22;50717;53.360;6.290;2022-07-12T10:36:05;25.40;99.90
64396;DHT22;50717;53.360;6.290;2022-07-12T10:38:33;25.70;99.90
64396;DHT22;50717;53.360;6.290;2022-07-12T10:41:19;26.00;99.90
64396;DHT22;50717;53.360;6.290;2022-07-12T10:43:46;25.60;99.90
64396;DHT22;50717;53.360;6.290;2022-07-12T10:46:30;25.40;99.90
64396;DHT22;50717;53.360;6.290;2022-07-12T10:49:33;25.80;99.90
64396;DHT22;50717;53.360;6.290;2022-07-12T10:54:47;25.70;99.90
64396;DHT22;50717;53.360;6.290;2022-07-12T10:57:42;25.50;99.90
64396;DHT22;50717;53.360;6.290;2022-07-12T11:00:13;26.00;99.90
64396;DHT22;50717;53.360;6.290;2022-07-12T11:02:40;26.00;99.90
64396;DHT22;50717;53.360;6.290;2022-07-12T11:05:07;25.80;99.90
64396;DHT22;50717;53.360;6.290;2022-07-12T11:07:34;25.70;99.90
64396;DHT22;50717;53.360;6.290;2022-07-12T11:10:00;25.60;99.90
64396;DHT22;50717;53.360;6.290;2022-07-12T11:12:29;25.70;99.90
64396;DHT22;50717;53.360;6.290;2022-07-12T11:14:56;25.80;99.90
64396;DHT22;50717;53.360;6.290;2022-07-12T11:17:31;25.90;99.90
64396;DHT22;50717;53.360;6.290;2022-07-12T11:20:08;26.50;99.90
64396;DHT22;50717;53.360;6.290;2022-07-12T11:22:36;26.60;99.90
64396;DHT22;50717;53.360;6.290;2022-07-12T11:25:03;26.20;99.90
64396;DHT22;50717;53.360;6.290;2022-07-12T11:27:30;26.40;99.90
64396;DHT22;50717;53.360;6.290;2022-07-12T11:29:59;26.20;99.90
64396;DHT22;50717;53.360;6.290;2022-07-12T11:32:54;26.60;99.90
64396;DHT22;50717;53.360;6.290;2022-07-12T11:35:23;26.50;99.90
64396;DHT22;50717;53.360;6.290;2022-07-12T11:37:55;26.60;99.90
64396;DHT22;50717;53.360;6.290;2022-07-12T11:40:26;26.60;99.90
64396;DHT22;50717;53.360;6.290;2022-07-12T11:42:53;27.00;99.90
64396;DHT22;50717;53.360;6.290;2022-07-12T11:45:19;26.70;99.90
64396;DHT22;50717;53.360;6.290;2022-07-12T11:47:45;26.50;99.90
64396;DHT22;50717;53.360;6.290;2022-07-12T11:50:10;26.70;99.90
64396;DHT22;50717;53.360;6.290;2022-07-12T11:52:36;26.30;99.90
64396;DHT22;50717;53.360;6.290;2022-07-12T11:55:07;26.20;99.90
64396;DHT22;50717;53.360;6.290;2022-07-12T11:57:32;27.10;99.90
64396;DHT22;50717;53.360;6.290;2022-07-12T12:00:13;27.10;99.90
64396;DHT22;50717;53.360;6.290;2022-07-12T12:02:39;27.00;99.90
64396;DHT22;50717;53.360;6.290;2022-07-12T12:05:05;27.00;99.90
64396;DHT22;50717;53.360;6.290;2022-07-12T12:07:32;27.20;99.90
64396;DHT22;50717;53.360;6.290;2022-07-12T12:10:05;27.10;99.90
64396;DHT22;50717;53.360;6.290;2022-07-12T12:12:55;26.80;99.90
64396;DHT22;50717;53.360;6.290;2022-07-12T12:15:22;27.00;99.90
64396;DHT22;50717;53.360;6.290;2022-07-12T12:17:55;27.30;99.90
64396;DHT22;50717;53.360;6.290;2022-07-12T12:20:40;27.40;99.90
64396;DHT22;50717;53.360;6.290;2022-07-12T12:23:16;27.30;99.90
64396;DHT22;50717;53.360;6.290;2022-07-12T12:25:43;27.10;99.90
64396;DHT22;50717;53.360;6.290;2022-07-12T12:28:08;27.40;99.90
64396;DHT22;50717;53.360;6.290;2022-07-12T12:30:51;27.40;99.90
64396;DHT22;50717;53.360;6.290;2022-07-12T12:33:39;27.00;99.90
64396;DHT22;50717;53.360;6.290;2022-07-12T12:38:41;26.70;99.90
64396;DHT22;50717;53.360;6.290;2022-07-12T12:41:08;27.00;99.90
64396;DHT22;50717;53.360;6.290;2022-07-12T12:43:34;26.80;99.90
64396;DHT22;50717;53.360;6.290;2022-07-12T12:46:00;27.30;99.90
64396;DHT22;50717;53.360;6.290;2022-07-12T12:48:28;27.20;99.90
64396;DHT22;50717;53.360;6.290;2022-07-12T12:51:09;27.80;99.90
64396;DHT22;50717;53.360;6.290;2022-07-12T12:53:37;27.90;99.90
64396;DHT22;50717;53.360;6.290;2022-07-12T12:56:12;28.20;99.90
64396;DHT22;50717;53.360;6.290;2022-07-12T12:58:38;28.40;99.90
64396;DHT22;50717;53.360;6.290;2022-07-12T13:01:05;28.20;99.90
64396;DHT22;50717;53.360;6.290;2022-07-12T13:03:31;28.30;99.90
64396;DHT22;50717;53.360;6.290;2022-07-12T13:05:57;27.90;99.90
64396;DHT22;50717;53.360;6.290;2022-07-12T13:08:24;27.80;99.90
64396;DHT22;50717;53.360;6.290;2022-07-12T13:10:50;27.50;99.90
64396;DHT22;50717;53.360;6.290;2022-07-12T13:13:38;27.40;99.90
64396;DHT22;50717;53.360;6.290;2022-07-12T13:16:05;27.00;99.90
64396;DHT22;50717;53.360;6.290;2022-07-12T13:18:31;27.10;99.90
64396;DHT22;50717;53.360;6.290;2022-07-12T13:20:57;26.90;99.90
64396;DHT22;50717;53.360;6.290;2022-07-12T13:23:23;26.60;99.90
64396;DHT22;50717;53.360;6.290;2022-07-12T13:25:49;26.40;99.90
64396;DHT22;50717;53.360;6.290;2022-07-12T13:28:14;26.60;99.90
64396;DHT22;50717;53.360;6.290;2022-07-12T13:30:40;26.60;99.90
64396;DHT22;50717;53.360;6.290;2022-07-12T13:33:06;26.30;99.90
64396;DHT22;50717;53.360;6.290;2022-07-12T13:35:31;26.10;99.90
64396;DHT22;50717;53.360;6.290;2022-07-12T13:37:57;26.30;99.90
64396;DHT22;50717;53.360;6.290;2022-07-12T13:40:23;26.20;99.90
64396;DHT22;50717;53.360;6.290;2022-07-12T13:42:50;26.20;99.90
64396;DHT22;50717;53.360;6.290;2022-07-12T13:45:24;26.30;99.90
64396;DHT22;50717;53.360;6.290;2022-07-12T13:47:51;26.50;99.90
64396;DHT22;50717;53.360;6.290;2022-07-12T13:50:18;26.40;99.90
64396;DHT22;50717;53.360;6.290;2022-07-12T13:52:45;26.60;99.90
64396;DHT22;50717;53.360;6.290;2022-07-12T13:55:13;27.00;99.90
64396;DHT22;50717;53.360;6.290;2022-07-12T13:57:39;27.10;99.90
64396;DHT22;50717;53.360;6.290;2022-07-12T14:00:10;26.80;99.90
64396;DHT22;50717;53.360;6.290;2022-07-12T14:02:37;26.90;99.90
64396;DHT22;50717;53.360;6.290;2022-07-12T14:05:05;27.00;99.90
64396;DHT22;50717;53.360;6.290;2022-07-12T14:07:31;26.60;99.90
64396;DHT22;50717;53.360;6.290;2022-07-12T14:09:57;26.40;99.90
64396;DHT22;50717;53.360;6.290;2022-07-12T14:12:24;26.20;99.90
64396;DHT22;50717;53.360;6.290;2022-07-12T14:14:50;26.00;99.90
64396;DHT22;50717;53.360;6.290;2022-07-12T14:17:35;26.00;99.90
64396;DHT22;50717;53.360;6.290;2022-07-12T14:20:01;26.20;99.90
64396;DHT22;50717;53.360;6.290;2022-07-12T14:22:27;26.20;99.90
64396;DHT22;50717;53.360;6.290;2022-07-12T14:24:55;26.30;99.90
64396;DHT22;50717;53.360;6.290;2022-07-12T14:27:21;26.50;99.90
64396;DHT22;50717;53.360;6.290;2022-07-12T14:29:47;26.80;99.90
64396;DHT22;50717;53.360;6.290;2022-07-12T14:32:13;26.30;99.90
64396;DHT22;50717;53.360;6.290;2022-07-12T14:34:38;26.80;99.90
64396;DHT22;50717;53.360;6.290;2022-07-12T14:37:04;26.80;99.90
64396;DHT22;50717;53.360;6.290;2022-07-12T14:39:30;27.10;99.90
64396;DHT22;50717;53.360;6.290;2022-07-12T14:41:55;27.10;99.90
64396;DHT22;50717;53.360;6.290;2022-07-12T14:44:21;26.90;99.90
64396;DHT22;50717;53.360;6.290;2022-07-12T14:46:47;26.90;99.90
64396;DHT22;50717;53.360;6.290;2022-07-12T14:49:12;27.00;99.90
64396;DHT22;50717;53.360;6.290;2022-07-12T14:51:38;26.40;99.90
64396;DHT22;50717;53.360;6.290;2022-07-12T14:54:04;26.40;99.90
64396;DHT22;50717;53.360;6.290;2022-07-12T14:56:30;26.00;99.90
64396;DHT22;50717;53.360;6.290;2022-07-12T14:58:55;25.80;99.90
64396;DHT22;50717;53.360;6.290;2022-07-12T15:01:21;25.90;99.90
64396;DHT22;50717;53.360;6.290;2022-07-12T15:03:47;25.50;99.90
64396;DHT22;50717;53.360;6.290;2022-07-12T15:06:12;25.50;99.90
64396;DHT22;50717;53.360;6.290;2022-07-12T15:08:38;24.60;99.90
64396;DHT22;50717;53.360;6.290;2022-07-12T15:11:04;25.30;99.90
64396;DHT22;50717;53.360;6.290;2022-07-12T15:13:30;25.80;99.90
64396;DHT22;50717;53.360;6.290;2022-07-12T15:15:56;25.50;99.90
64396;DHT22;50717;53.360;6.290;2022-07-12T15:18:22;25.40;99.90
64396;DHT22;50717;53.360;6.290;2022-07-12T15:20:50;25.10;99.90
64396;DHT22;50717;53.360;6.290;2022-07-12T15:23:15;25.50;99.90
64396;DHT22;50717;53.360;6.290;2022-07-12T15:25:41;25.20;99.90
64396;DHT22;50717;53.360;6.290;2022-07-12T15:28:07;25.10;99.90
64396;DHT22;50717;53.360;6.290;2022-07-12T15:30:33;25.30;99.90
64396;DHT22;50717;53.360;6.290;2022-07-12T15:32:59;25.20;99.90
64396;DHT22;50717;53.360;6.290;2022-07-12T15:35:25;25.30;99.90
64396;DHT22;50717;53.360;6.290;2022-07-12T15:37:51;25.00;99.90
64396;DHT22;50717;53.360;6.290;2022-07-12T15:40:17;25.30;99.90
64396;DHT22;50717;53.360;6.290;2022-07-12T15:42:43;25.50;99.90
64396;DHT22;50717;53.360;6.290;2022-07-12T15:45:09;25.60;99.90
64396;DHT22;50717;53.360;6.290;2022-07-12T15:47:37;25.40;99.90
64396;DHT22;50717;53.360;6.290;2022-07-12T15:50:03;25.30;99.90
64396;DHT22;50717;53.360;6.290;2022-07-12T15:52:29;25.50;99.90
64396;DHT22;50717;53.360;6.290;2022-07-12T15:55:13;25.30;99.90